Air Quality Table

TIMESTAMP NO2 SO2 O3 PM10 PM2.5 TEMP HUM AIRPRES WS WD NO
2022-01-21 06:00 16.56 µg/m3 1.53 µg/m3 79.55 µg/m3 9.59 µg/m3 10.05 µg/m3 11.05 °C 75.85 % 1,015.05 mbar 1.61 m/s 283.65 Deg 0.83 µg/m3
2022-01-21 05:00 5.44 µg/m3 1.47 µg/m3 89.05 µg/m3 9.5 µg/m3 10.64 µg/m3 11.06 °C 74.85 % 1,015.17 mbar 1.46 m/s 281.27 Deg 0.22 µg/m3
2022-01-21 04:00 4.28 µg/m3 1.47 µg/m3 90.2 µg/m3 9.53 µg/m3 17.24 µg/m3 11.27 °C 71.32 % 1,015.54 mbar 1.69 m/s 279.28 Deg 0.24 µg/m3
2022-01-21 03:00 2.58 µg/m3 1.32 µg/m3 85.94 µg/m3 9.37 µg/m3 19.62 µg/m3 11.44 °C 72.28 % 1,016.02 mbar 1.77 m/s 284.27 Deg 0.22 µg/m3
2022-01-21 02:00 3.04 µg/m3 1.44 µg/m3 85.83 µg/m3 12.46 µg/m3 17.47 µg/m3 11.42 °C 74.29 % 1,016.23 mbar 1.81 m/s 273.17 Deg 0.2 µg/m3
2022-01-21 01:00 3.42 µg/m3 1.41 µg/m3 83.97 µg/m3 16.39 µg/m3 7.97 µg/m3 11.74 °C 76.56 % 1,016.62 mbar 1.97 m/s 277.58 Deg 0.21 µg/m3
2022-01-21 00:00 6.85 µg/m3 1.55 µg/m3 77.32 µg/m3 21.3 µg/m3 3.3 µg/m3 11.96 °C 77.81 % 1,017.07 mbar 1.93 m/s 271.55 Deg 0.3 µg/m3
2022-01-20 23:00 15.41 µg/m3 1.65 µg/m3 70.28 µg/m3 32.27 µg/m3 4.77 µg/m3 11.98 °C 76.89 % 1,017.38 mbar 1.3 m/s 286.32 Deg 1.01 µg/m3
2022-01-20 22:00 17.48 µg/m3 1.52 µg/m3 70.54 µg/m3 37.01 µg/m3 4.31 µg/m3 11.93 °C 75.53 % 1,017.51 mbar 1.39 m/s 282.3 Deg 0.56 µg/m3
2022-01-20 21:00 43.9 µg/m3 1.67 µg/m3 39.73 µg/m3 36.41 µg/m3 1.3 µg/m3 11.53 °C 76.33 % 1,017.48 mbar 1.07 m/s 300.2 Deg 4.13 µg/m3
2022-01-20 20:00 42.37 µg/m3 1.57 µg/m3 44.28 µg/m3 25.63 µg/m3 0.74 µg/m3 11.98 °C 74.78 % 1,017.50 mbar 1.42 m/s 294.15 Deg 2.7 µg/m3
2022-01-20 19:00 49.49 µg/m3 1.69 µg/m3 38.53 µg/m3 16.45 µg/m3 1.48 µg/m3 12.53 °C 74.03 % 1,017.42 mbar 1.18 m/s 286.4 Deg 5.04 µg/m3
2022-01-20 18:00 30.91 µg/m3 1.47 µg/m3 56.28 µg/m3 17.7 µg/m3 2.96 µg/m3 13.11 °C 69.38 % 1,017.30 mbar 1.6 m/s 279.35 Deg 2.67 µg/m3
2022-01-20 17:00 24.28 µg/m3 1.23 µg/m3 64.69 µg/m3 18.14 µg/m3 5.91 µg/m3 13.89 °C 70.35 % 1,017.30 mbar 1.61 m/s 304.67 Deg 2.27 µg/m3
2022-01-20 16:00 20.61 µg/m3 1.42 µg/m3 68.42 µg/m3 19.05 µg/m3 6.05 µg/m3 14.12 °C 67.25 % 1,017.33 mbar 1.81 m/s 298.95 Deg 3.73 µg/m3
2022-01-20 15:00 22 µg/m3 1.36 µg/m3 66.23 µg/m3 15.69 µg/m3 7.69 µg/m3 14.4 °C 63.71 % 1,017.68 mbar 1.54 m/s 316.9 Deg 4.53 µg/m3
2022-01-20 14:00 15.57 µg/m3 1.63 µg/m3 71.34 µg/m3 12.37 µg/m3 8.9 µg/m3 14.32 °C 66.83 % 1,018.26 mbar 2.15 m/s 286.9 Deg 2.98 µg/m3
2022-01-20 13:00 20.01 µg/m3 1.36 µg/m3 66.01 µg/m3 13.56 µg/m3 10.8 µg/m3 14.05 °C 75.85 % 1,019.00 mbar 1.93 m/s 301.42 Deg 4.69 µg/m3
2022-01-20 12:00 11.51 µg/m3 1.47 µg/m3 74.51 µg/m3 18.15 µg/m3 13.5 µg/m3 14.68 °C 68.35 % 1,019.88 mbar 2.5 m/s 248.2 Deg 2.77 µg/m3
2022-01-20 11:00 8.35 µg/m3 1.01 µg/m3 76.59 µg/m3 19.31 µg/m3 7.67 µg/m3 14.19 °C 74.99 % 1,020.36 mbar 2.16 m/s 228.28 Deg 1.53 µg/m3
2022-01-20 10:00 14.2 µg/m3 1.33 µg/m3 74.37 µg/m3 24.21 µg/m3 5.24 µg/m3 14.16 °C 77.95 % 1,020.28 mbar 1.64 m/s 198.85 Deg 2.38 µg/m3
2022-01-20 09:00 49.14 µg/m3 1.34 µg/m3 38.79 µg/m3 14.27 µg/m3 4.94 µg/m3 13.16 °C 82.93 % 1,020.27 mbar 0.99 m/s 222.17 Deg 13.84 µg/m3
2022-01-20 08:00 68.85 µg/m3 1.61 µg/m3 27.48 µg/m3 9.63 µg/m3 5.55 µg/m3 12.14 °C 86.05 % 1,020.59 mbar 0.93 m/s 225.72 Deg 14.11 µg/m3
2022-01-20 07:00 36.12 µg/m3 1.51 µg/m3 50.94 µg/m3 8.28 µg/m3 6.4 µg/m3 11.44 °C 89.05 % 1,020.67 mbar 1.15 m/s 234.5 Deg 3.19 µg/m3
2022-01-20 06:00 14.91 µg/m3 1.56 µg/m3 67.33 µg/m3 8.91 µg/m3 7.93 µg/m3 11.18 °C 89.78 % 1,020.53 mbar 1.24 m/s 237.93 Deg 0.75 µg/m3
2022-01-20 05:00 9.27 µg/m3 1.44 µg/m3 71.93 µg/m3 7.64 µg/m3 11.45 µg/m3 11.17 °C 89.03 % 1,020.69 mbar 1.28 m/s 234.13 Deg 0.5 µg/m3
2022-01-20 04:00 6.67 µg/m3 1.5 µg/m3 75.72 µg/m3 7.48 µg/m3 9.36 µg/m3 11.83 °C 85.8 % 1,021.13 mbar 1.69 m/s 214.32 Deg 0.24 µg/m3
2022-01-20 03:00 11.91 µg/m3 1.36 µg/m3 70.2 µg/m3 9.17 µg/m3 7.89 µg/m3 12.67 °C 87.76 % 1,021.53 mbar 2.61 m/s 179.05 Deg 0.29 µg/m3
2022-01-20 02:00 6.67 µg/m3 1.46 µg/m3 76.76 µg/m3 10 µg/m3 5.47 µg/m3 12.56 °C 90.42 % 1,021.84 mbar 2.74 m/s 180.93 Deg 0.25 µg/m3
2022-01-20 01:00 16.19 µg/m3 1.31 µg/m3 61.27 µg/m3 10.34 µg/m3 5.93 µg/m3 12.3 °C 87.8 % 1,022.22 mbar 1.49 m/s 209.27 Deg 0.28 µg/m3
2022-01-20 00:00 13.81 µg/m3 1.23 µg/m3 66.99 µg/m3 9.92 µg/m3 4.36 µg/m3 12.56 °C 84.72 % 1,022.61 mbar 1.07 m/s 226.7 Deg 0.41 µg/m3
2022-01-19 23:00 20.83 µg/m3 1.26 µg/m3 59.86 µg/m3 13.58 µg/m3 4.53 µg/m3 12.45 °C 84.14 % 1,023.01 mbar 1.01 m/s 213.18 Deg 0.42 µg/m3
2022-01-19 22:00 11.79 µg/m3 1.26 µg/m3 67.69 µg/m3 16.85 µg/m3 3.55 µg/m3 12.21 °C 85.43 % 1,023.23 mbar 1.32 m/s 181.94 Deg 0.29 µg/m3
2022-01-19 21:00 11.28 µg/m3 1.42 µg/m3 71.5 µg/m3 11.98 µg/m3 4.38 µg/m3 12.4 °C 88.05 % 1,023.32 mbar 2.43 m/s 177.43 Deg 0.28 µg/m3
2022-01-19 20:00 6.29 µg/m3 1.4 µg/m3 73.97 µg/m3 11.19 µg/m3 5.27 µg/m3 12.65 °C 84.54 % 1,023.23 mbar 1.69 m/s 164.05 Deg 0.26 µg/m3
2022-01-19 19:00 4.65 µg/m3 1.4 µg/m3 75.51 µg/m3 15.86 µg/m3 6.35 µg/m3 12.43 °C 87.26 % 1,023.26 mbar 1.82 m/s 155.3 Deg 0.26 µg/m3
2022-01-19 18:00 2.9 µg/m3 1.42 µg/m3 80.19 µg/m3 11.55 µg/m3 5.21 µg/m3 11.71 °C 94.86 % 1,023.10 mbar 2.16 m/s 201.95 Deg 0.21 µg/m3
2022-01-19 17:00 3.48 µg/m3 1.36 µg/m3 82.46 µg/m3 14.81 µg/m3 4.78 µg/m3 13.59 °C 78.86 % 1,022.66 mbar 3.52 m/s 145.5 Deg 0.28 µg/m3
2022-01-19 16:00 2.71 µg/m3 1.54 µg/m3 84.17 µg/m3 13.19 µg/m3 6.53 µg/m3 14.12 °C 70.23 % 1,022.70 mbar 3.21 m/s 145.73 Deg 0.39 µg/m3
2022-01-19 15:00 4.52 µg/m3 1.54 µg/m3 82.32 µg/m3 11.6 µg/m3 7.91 µg/m3 14.27 °C 71.57 % 1,023.02 mbar 2.93 m/s 171.85 Deg 0.72 µg/m3
2022-01-19 14:00 4.33 µg/m3 1.59 µg/m3 82.29 µg/m3 12.02 µg/m3 9.9 µg/m3 14.52 °C 65.62 % 1,023.31 mbar 3.1 m/s 169.47 Deg 0.79 µg/m3
2022-01-19 13:00 4.44 µg/m3 1.39 µg/m3 81.92 µg/m3 18.02 µg/m3 12.17 µg/m3 14.61 °C 63.09 % 1,024.16 mbar 2.79 m/s 167.68 Deg 0.81 µg/m3
2022-01-19 12:00 4.02 µg/m3 1.42 µg/m3 82.37 µg/m3 16.13 µg/m3 20.87 µg/m3 14.41 °C 64.1 % 1,024.70 mbar 2.94 m/s 156.63 Deg 0.72 µg/m3
2022-01-19 11:00 3.46 µg/m3 1.63 µg/m3 78.92 µg/m3 18.01 µg/m3 26.54 µg/m3 14.14 °C 67.15 % 1,025.02 mbar 2.63 m/s 145.03 Deg 0.51 µg/m3
2022-01-19 10:00 5.05 µg/m3 1.4 µg/m3 71.36 µg/m3 24.92 µg/m3 12.25 µg/m3 13.39 °C 74.06 % 1,025.04 mbar 2.17 m/s 127.93 Deg 0.56 µg/m3
2022-01-19 09:00 9.47 µg/m3 1.46 µg/m3 62.59 µg/m3 23.29 µg/m3 10.42 µg/m3 12.61 °C 79.59 % 1,024.63 mbar 1.53 m/s 127.47 Deg 0.79 µg/m3
2022-01-19 08:00 6.34 µg/m3 1.45 µg/m3 68.8 µg/m3 18.08 µg/m3 9.15 µg/m3 12.16 °C 82.82 % 1,024.36 mbar 1.87 m/s 128.57 Deg 0.36 µg/m3
2022-01-19 07:00 19.76 µg/m3 1.65 µg/m3 56.71 µg/m3 18.66 µg/m3 7.66 µg/m3 12.18 °C 79.48 % 1,023.96 mbar 1.67 m/s 104.67 Deg 2.72 µg/m3
2022-01-19 06:00 26.65 µg/m3 1.63 µg/m3 40.55 µg/m3 18.1 µg/m3 11.09 µg/m3 11.77 °C 78.79 % 1,023.69 mbar 1.11 m/s 242.83 Deg 2.39 µg/m3
2022-01-19 05:00 20.66 µg/m3 1.58 µg/m3 42.73 µg/m3 14.71 µg/m3 7.11 µg/m3 11.57 °C 78.79 % 1,023.63 mbar 1.09 m/s 322.2 Deg 1.4 µg/m3
2022-01-19 04:00 10.93 µg/m3 1.39 µg/m3 57.98 µg/m3 14.58 µg/m3 5.65 µg/m3 11.4 °C 78.35 % 1,023.83 mbar 1.41 m/s 310.38 Deg 0.39 µg/m3
2022-01-19 03:00 6.91 µg/m3 1.4 µg/m3 65.69 µg/m3 14.29 µg/m3 6.69 µg/m3 11.57 °C 76.61 % 1,023.95 mbar 1.61 m/s 306.78 Deg 0.28 µg/m3
2022-01-19 02:00 6.68 µg/m3 1.67 µg/m3 67.18 µg/m3 20.11 µg/m3 8.71 µg/m3 11.58 °C 76.46 % 1,024.12 mbar 1.73 m/s 303.9 Deg 0.31 µg/m3
2022-01-19 01:00 13.49 µg/m3 1.75 µg/m3 59.55 µg/m3 24.73 µg/m3 10.52 µg/m3 11.36 °C 77.34 % 1,024.34 mbar 1.88 m/s 297.58 Deg 0.43 µg/m3
2022-01-19 00:00 17.82 µg/m3 1.7 µg/m3 56.13 µg/m3 38.98 µg/m3 19.13 µg/m3 11.35 °C 77.69 % 1,024.48 mbar 1.63 m/s 304.88 Deg 0.58 µg/m3
2022-01-18 23:00 26.01 µg/m3 1.62 µg/m3 48.8 µg/m3 51.41 µg/m3 17.86 µg/m3 11.03 °C 80.28 % 1,024.88 mbar 1.8 m/s 299.45 Deg 1.6 µg/m3
2022-01-18 22:00 38.92 µg/m3 1.49 µg/m3 35.64 µg/m3 46.95 µg/m3 13.99 µg/m3 10.83 °C 81.85 % 1,024.71 mbar 1.72 m/s 306.13 Deg 1.98 µg/m3
2022-01-18 21:00 63.16 µg/m3 1.82 µg/m3 17.05 µg/m3 51.09 µg/m3 17.19 µg/m3 11.17 °C 81.06 % 1,024.66 mbar 1.71 m/s 305.48 Deg 6.34 µg/m3
2022-01-18 20:00 85.3 µg/m3 1.96 µg/m3 3.7 µg/m3 36.64 µg/m3 7.07 µg/m3 11.73 °C 78.76 % 1,024.37 mbar 1.45 m/s 304.28 Deg 25.16 µg/m3
2022-01-18 19:00 60.73 µg/m3 1.85 µg/m3 28.94 µg/m3 22.48 µg/m3 3.76 µg/m3 12.51 °C 74.38 % 1,023.94 mbar 1.09 m/s 257 Deg 7.56 µg/m3
2022-01-18 18:00 33.17 µg/m3 1.62 µg/m3 57.95 µg/m3 18.26 µg/m3 4.16 µg/m3 12.96 °C 70.77 % 1,023.29 mbar 1.75 m/s 350.13 Deg 3.27 µg/m3
2022-01-18 17:00 19.86 µg/m3 1.63 µg/m3 73.65 µg/m3 22.76 µg/m3 3.1 µg/m3 13.62 °C 66.57 % 1,022.79 mbar 2.45 m/s 93.6 Deg 4.13 µg/m3
2022-01-18 16:00 12.03 µg/m3 1.31 µg/m3 81.31 µg/m3 19.45 µg/m3 3.87 µg/m3 14.14 °C 63.82 % 1,022.56 mbar 3.12 m/s 93.43 Deg 2.84 µg/m3
2022-01-18 15:00 12.15 µg/m3 1.47 µg/m3 80.11 µg/m3 19.9 µg/m3 3.28 µg/m3 14.11 °C 63.86 % 1,022.34 mbar 3.17 m/s 177.22 Deg 3.12 µg/m3
2022-01-18 14:00 18.66 µg/m3 1.49 µg/m3 79.01 µg/m3 22.01 µg/m3 4.27 µg/m3 14.13 °C 63.83 % 1,022.42 mbar 3.17 m/s 90.6 Deg 7.51 µg/m3
2022-01-18 13:00 10.2 µg/m3 1.42 µg/m3 80.32 µg/m3 22.88 µg/m3 5.84 µg/m3 14.42 °C 64.56 % 1,022.77 mbar 3.54 m/s 265.87 Deg 3.17 µg/m3
2022-01-18 12:00 10.28 µg/m3 1.47 µg/m3 79.12 µg/m3 29.53 µg/m3 8.98 µg/m3 14.18 °C 67.35 % 1,023.16 mbar 3.54 m/s 264.98 Deg 2.84 µg/m3
2022-01-18 11:00 13.34 µg/m3 1.31 µg/m3 72.45 µg/m3 32.88 µg/m3 9.84 µg/m3 14.24 °C 68.62 % 1,023.09 mbar 3.57 m/s 350.38 Deg 5.81 µg/m3
2022-01-18 10:00 48.3 µg/m3 1.76 µg/m3 37.63 µg/m3 40.86 µg/m3 7.46 µg/m3 13.6 °C 74.81 % 1,022.49 mbar 2.08 m/s 323.88 Deg 17.24 µg/m3
2022-01-18 09:00 71.5 µg/m3 1.96 µg/m3 13.73 µg/m3 33.9 µg/m3 5.43 µg/m3 11.93 °C 82.8 % 1,022.01 mbar 1.49 m/s 323.33 Deg 27.68 µg/m3
2022-01-18 08:00 65.77 µg/m3 1.79 µg/m3 14.9 µg/m3 18.78 µg/m3 6.78 µg/m3 11.23 °C 84.89 % 1,021.49 mbar 2 m/s 309.5 Deg 20.53 µg/m3
2022-01-18 07:00 52.56 µg/m3 1.63 µg/m3 28.38 µg/m3 20.42 µg/m3 6.61 µg/m3 11.8 °C 81.73 % 1,020.92 mbar 1.92 m/s 331.08 Deg 7.79 µg/m3
2022-01-18 06:00 26.25 µg/m3 1.48 µg/m3 49.13 µg/m3 18.65 µg/m3 7.21 µg/m3 11.12 °C 84.25 % 1,020.39 mbar 2.14 m/s 326.17 Deg 1.56 µg/m3
2022-01-18 05:00 10.28 µg/m3 1.33 µg/m3 57.98 µg/m3 11.84 µg/m3 8.84 µg/m3 10.28 °C 87.94 % 1,020.13 mbar 1.68 m/s 305.62 Deg 0.87 µg/m3
2022-01-18 04:00 6.79 µg/m3 1.6 µg/m3 61.97 µg/m3 13.09 µg/m3 11.83 µg/m3 10.4 °C 88.13 % 1,020.18 mbar 1.61 m/s 312.75 Deg 0.39 µg/m3
2022-01-18 03:00 4.57 µg/m3 1.45 µg/m3 65.81 µg/m3 13.81 µg/m3 10.79 µg/m3 10.68 °C 88.07 % 1,020.12 mbar 1.66 m/s 302.7 Deg 0.25 µg/m3
2022-01-18 02:00 5.42 µg/m3 1.51 µg/m3 67.34 µg/m3 13.42 µg/m3 13.21 µg/m3 11.35 °C 87.3 % 1,020.10 mbar 1.61 m/s 303.52 Deg 0.26 µg/m3
2022-01-18 01:00 5.93 µg/m3 1.59 µg/m3 70.44 µg/m3 16.54 µg/m3 3.56 µg/m3 11.94 °C 87.16 % 1,019.98 mbar 1.62 m/s 316.97 Deg 0.3 µg/m3
2022-01-18 00:00 11.34 µg/m3 1.29 µg/m3 65.26 µg/m3 17.09 µg/m3 0 µg/m3 12.13 °C 87.85 % 1,019.96 mbar 1.55 m/s 325.88 Deg 0.43 µg/m3
2022-01-17 23:00 13.48 µg/m3 1.51 µg/m3 64.39 µg/m3 23.03 µg/m3 0 µg/m3 12.01 °C 85.5 % 1,019.99 mbar 1.36 m/s 312.57 Deg 0.5 µg/m3
2022-01-17 22:00 11.61 µg/m3 1.41 µg/m3 70.98 µg/m3 22.68 µg/m3 0 µg/m3 12.48 °C 81.55 % 1,019.89 mbar 1.92 m/s 328.4 Deg 0.76 µg/m3
2022-01-17 21:00 15.09 µg/m3 1.4 µg/m3 68.18 µg/m3 31.67 µg/m3 0 µg/m3 12.65 °C 81.95 % 1,019.78 mbar 2.08 m/s 325.73 Deg 0.8 µg/m3
2022-01-17 20:00 22.02 µg/m3 1.42 µg/m3 65.21 µg/m3 30.67 µg/m3 0 µg/m3 12.59 °C 78.76 % 1,019.32 mbar 2.28 m/s 318.37 Deg 1.54 µg/m3
2022-01-17 19:00 24.49 µg/m3 1.31 µg/m3 66.15 µg/m3 26.58 µg/m3 0 µg/m3 12.89 °C 78.03 % 1,019.11 mbar 2.45 m/s 315.48 Deg 3.05 µg/m3
2022-01-17 18:00 23.52 µg/m3 1.54 µg/m3 70.18 µg/m3 18.76 µg/m3 0 µg/m3 13.2 °C 75.77 % 1,018.84 mbar 2.73 m/s 319.95 Deg 1.97 µg/m3
2022-01-17 17:00 21.55 µg/m3 1.47 µg/m3 74 µg/m3 22.23 µg/m3 0 µg/m3 13.76 °C 73.06 % 1,018.52 mbar 3.25 m/s 314.13 Deg 2.56 µg/m3
2022-01-17 16:00 16.37 µg/m3 1.2 µg/m3 81.93 µg/m3 31.82 µg/m3 0 µg/m3 14.5 °C 70.82 % 1,018.38 mbar 4.06 m/s 316.98 Deg 2.93 µg/m3
2022-01-17 15:00 17.12 µg/m3 1.72 µg/m3 76.16 µg/m3 20.71 µg/m3 0 µg/m3 14.62 °C 71.99 % 1,018.34 mbar 3.72 m/s 317.1 Deg 3.7 µg/m3
2022-01-17 14:00 12.92 µg/m3 1.57 µg/m3 78.29 µg/m3 17.33 µg/m3 0 µg/m3 15.06 °C 69.1 % 1,018.74 mbar 3.5 m/s 310.32 Deg 3.24 µg/m3
2022-01-17 13:00 14.07 µg/m3 1.58 µg/m3 75.83 µg/m3 17.94 µg/m3 0 µg/m3 14.68 °C 71.34 % 1,019.56 mbar 3.07 m/s 316.73 Deg 3.63 µg/m3
2022-01-17 12:00 16.34 µg/m3 1.33 µg/m3 72.12 µg/m3 29.46 µg/m3 0 µg/m3 14.53 °C 70.73 % 1,020.05 mbar 2.98 m/s 309.77 Deg 4.19 µg/m3
2022-01-17 11:00 22.98 µg/m3 1.71 µg/m3 62.31 µg/m3 51.1 µg/m3 0 µg/m3 14.48 °C 74.26 % 1,020.96 mbar 2.23 m/s 322.78 Deg 6.66 µg/m3
2022-01-17 10:00 62.19 µg/m3 2.16 µg/m3 23.13 µg/m3 35.36 µg/m3 0 µg/m3 13.06 °C 83.94 % 1,020.80 mbar 1.3 m/s 325.77 Deg 31.51 µg/m3
2022-01-17 09:00 69.89 µg/m3 1.88 µg/m3 15.54 µg/m3 26.62 µg/m3 µg/m3 11.62 °C 88.42 % 1,020.57 mbar 1.38 m/s 314.19 Deg 36.03 µg/m3
2022-01-17 08:00 67.81 µg/m3 2 µg/m3 13.8 µg/m3 14.23 µg/m3 µg/m3 10.81 °C 91.66 % 1,020.55 mbar 1.58 m/s 316.37 Deg 25.2 µg/m3
2022-01-17 07:00 51.51 µg/m3 1.51 µg/m3 27.52 µg/m3 10.01 µg/m3 µg/m3 10.87 °C 92.12 % 1,020.34 mbar 1.51 m/s 314.35 Deg 10.67 µg/m3
2022-01-17 06:00 24.36 µg/m3 1.43 µg/m3 46.59 µg/m3 9 µg/m3 µg/m3 10.6 °C 94.4 % 1,020.11 mbar 1.65 m/s 312.63 Deg 2.81 µg/m3
2022-01-17 05:00 8.72 µg/m3 1.61 µg/m3 57.59 µg/m3 9.79 µg/m3 µg/m3 10.47 °C 95.65 % 1,019.88 mbar 1.72 m/s 309.8 Deg 0.5 µg/m3
2022-01-17 04:00 7.7 µg/m3 1.56 µg/m3 56.4 µg/m3 10.49 µg/m3 µg/m3 10.73 °C 95.94 % 1,020.01 mbar 1.41 m/s 304.18 Deg 0.35 µg/m3
2022-01-17 03:00 7.43 µg/m3 1.5 µg/m3 57.4 µg/m3 13.51 µg/m3 µg/m3 10.92 °C 95.31 % 1,020.30 mbar 1.24 m/s 310.22 Deg 0.36 µg/m3
2022-01-17 02:00 8.53 µg/m3 1.4 µg/m3 57.04 µg/m3 21.2 µg/m3 µg/m3 11.17 °C 94.61 % 1,020.32 mbar 1.02 m/s 304.78 Deg 0.34 µg/m3
2022-01-17 01:00 14.1 µg/m3 1.36 µg/m3 51.82 µg/m3 31.04 µg/m3 µg/m3 11 °C 95.3 % 1,020.37 mbar 1.19 m/s 299.1 Deg 0.59 µg/m3
2022-01-17 00:00 17.25 µg/m3 1.33 µg/m3 48.64 µg/m3 29.59 µg/m3 µg/m3 10.93 °C 94.99 % 1,020.52 mbar 1.62 m/s 306.73 Deg 0.71 µg/m3
2022-01-16 23:00 27.45 µg/m3 1.48 µg/m3 34.48 µg/m3 45.64 µg/m3 µg/m3 10.72 °C 97.1 % 1,020.80 mbar 1.13 m/s 315.7 Deg 2.18 µg/m3
2022-01-16 22:00 35.34 µg/m3 1.46 µg/m3 31.5 µg/m3 54.51 µg/m3 µg/m3 10.94 °C 96.81 % 1,020.74 mbar 1.28 m/s 317.72 Deg 2.62 µg/m3
2022-01-16 21:00 43.54 µg/m3 1.28 µg/m3 29.64 µg/m3 58.26 µg/m3 µg/m3 11.53 °C 93.79 % 1,020.48 mbar 1.63 m/s 305.48 Deg 6.52 µg/m3
2022-01-16 20:00 56.3 µg/m3 1.63 µg/m3 22.81 µg/m3 41.33 µg/m3 µg/m3 12.17 °C 91.57 % 1,020.01 mbar 1.44 m/s 301.65 Deg 9.25 µg/m3
2022-01-16 19:00 55.36 µg/m3 1.64 µg/m3 27.9 µg/m3 23.13 µg/m3 µg/m3 12.87 °C 89.17 % 1,019.63 mbar 1.41 m/s 297.2 Deg 8.35 µg/m3
2022-01-16 18:00 33.6 µg/m3 1.44 µg/m3 47.45 µg/m3 15.12 µg/m3 µg/m3 13.55 °C 85.92 % 1,019.02 mbar 1.63 m/s 263.8 Deg 1.08 µg/m3
2022-01-16 17:00 12.51 µg/m3 1.26 µg/m3 69.11 µg/m3 17.69 µg/m3 µg/m3 14.92 °C 78.67 % 1,018.58 mbar 1.23 m/s 238.8 Deg 0.6 µg/m3
2022-01-16 16:00 10.66 µg/m3 1.27 µg/m3 78.04 µg/m3 25.56 µg/m3 µg/m3 15.07 °C 79 % 1,018.46 mbar 1.5 m/s 133.47 Deg 1.04 µg/m3
2022-01-16 15:00 6.76 µg/m3 1.22 µg/m3 80.11 µg/m3 15.01 µg/m3 µg/m3 15.08 °C 80.59 % 1,018.35 mbar 2.61 m/s 154.35 Deg 0.99 µg/m3
2022-01-16 14:00 9.92 µg/m3 1.44 µg/m3 76.87 µg/m3 14.67 µg/m3 µg/m3 14.82 °C 79.99 % 1,018.43 mbar 2.6 m/s 144.05 Deg 1.51 µg/m3
2022-01-16 13:00 11.8 µg/m3 1.62 µg/m3 69.81 µg/m3 14.06 µg/m3 µg/m3 14.8 °C 79.77 % 1,018.80 mbar 1.66 m/s 140.1 Deg 1.81 µg/m3
2022-01-16 12:00 17.25 µg/m3 1.49 µg/m3 66.55 µg/m3 16.17 µg/m3 µg/m3 14.93 °C 72.96 % 1,019.04 mbar 0.58 m/s 291.43 Deg 2.62 µg/m3
2022-01-16 11:00 10.43 µg/m3 1.62 µg/m3 69.17 µg/m3 23.64 µg/m3 µg/m3 15.58 °C 72.25 % 1,019.09 mbar 0.76 m/s 243.01 Deg 1.96 µg/m3
2022-01-16 10:00 26.46 µg/m3 1.55 µg/m3 56.1 µg/m3 34.53 µg/m3 µg/m3 14.58 °C 76.15 % 1,018.84 mbar 0.71 m/s 175.35 Deg 6.49 µg/m3
2022-01-16 09:00 41.83 µg/m3 1.76 µg/m3 42.65 µg/m3 17.13 µg/m3 µg/m3 12.44 °C 80.04 % 1,018.39 mbar 1.38 m/s 297.08 Deg 11.72 µg/m3
2022-01-16 08:00 28.68 µg/m3 1.61 µg/m3 49.1 µg/m3 11.08 µg/m3 µg/m3 12.32 °C 79.87 % 1,018.03 mbar 1.17 m/s 320.03 Deg 2.99 µg/m3
2022-01-16 07:00 15.31 µg/m3 1.44 µg/m3 58.55 µg/m3 13.88 µg/m3 µg/m3 11.47 °C 83.72 % 1,017.39 mbar 1.65 m/s 309.23 Deg 0.75 µg/m3
2022-01-16 06:00 8.8 µg/m3 1.43 µg/m3 65.52 µg/m3 13.32 µg/m3 µg/m3 11.46 °C 83.31 % 1,016.63 mbar 1.83 m/s 304 Deg 0.4 µg/m3
2022-01-16 05:00 6.2 µg/m3 1.41 µg/m3 70.44 µg/m3 13.83 µg/m3 µg/m3 11.41 °C 83.66 % 1,016.59 mbar 2.19 m/s 298.5 Deg 0.25 µg/m3
2022-01-16 04:00 6.33 µg/m3 1.82 µg/m3 67.59 µg/m3 16.98 µg/m3 µg/m3 11.31 °C 84.76 % 1,017.01 mbar 1.96 m/s 303.68 Deg 0.27 µg/m3
2022-01-16 03:00 10.94 µg/m3 1.65 µg/m3 62.15 µg/m3 18.8 µg/m3 µg/m3 11.65 °C 83.34 % 1,016.94 mbar 1.4 m/s 313.55 Deg 0.32 µg/m3
2022-01-16 02:00 15.34 µg/m3 1.53 µg/m3 58.09 µg/m3 19.51 µg/m3 µg/m3 10.82 °C 82.67 % 1,016.26 mbar 1.91 m/s 306.18 Deg 0.59 µg/m3
2022-01-16 01:00 26.15 µg/m3 1.52 µg/m3 44.41 µg/m3 28.22 µg/m3 µg/m3 10.43 °C 85.05 % 1,016.66 mbar 1.83 m/s 304.65 Deg 1.8 µg/m3
2022-01-16 00:00 24.62 µg/m3 1.52 µg/m3 49 µg/m3 51.22 µg/m3 µg/m3 10.52 °C 82.86 % 1,016.35 mbar 1.23 m/s 314.33 Deg 1.17 µg/m3
2022-01-15 23:00 35.18 µg/m3 1.54 µg/m3 39.76 µg/m3 67.25 µg/m3 µg/m3 10.24 °C 83.77 % 1,015.88 mbar 1.55 m/s 313.67 Deg 2.01 µg/m3
2022-01-15 22:00 44.66 µg/m3 1.62 µg/m3 34.56 µg/m3 81.98 µg/m3 µg/m3 10.56 °C 83.14 % 1,016.45 mbar 1.62 m/s 308.57 Deg 3.41 µg/m3
2022-01-15 21:00 59.85 µg/m3 1.85 µg/m3 24.1 µg/m3 67.96 µg/m3 µg/m3 10.7 °C 83.08 % 1,015.98 mbar 1.44 m/s 309.72 Deg 8.93 µg/m3
2022-01-15 20:00 64.14 µg/m3 1.72 µg/m3 22.11 µg/m3 52.25 µg/m3 µg/m3 11.06 °C 81.28 % 1,015.78 mbar 1.29 m/s 316.3 Deg 11 µg/m3
2022-01-15 19:00 69.62 µg/m3 2.01 µg/m3 19.65 µg/m3 30.61 µg/m3 µg/m3 11.51 °C 78.01 % 1,015.53 mbar 1.34 m/s 311.78 Deg 9.73 µg/m3
2022-01-15 18:00 48.6 µg/m3 1.69 µg/m3 40.18 µg/m3 26.02 µg/m3 µg/m3 12.27 °C 74.05 % 1,015.10 mbar 1.15 m/s 331.22 Deg 4.7 µg/m3
2022-01-15 17:00 18.73 µg/m3 1.61 µg/m3 73.98 µg/m3 21.58 µg/m3 µg/m3 13.03 °C 69.68 % 1,015.02 mbar 2.14 m/s 92.42 Deg 2.49 µg/m3
2022-01-15 16:00 12.07 µg/m3 1.55 µg/m3 83.07 µg/m3 20.07 µg/m3 µg/m3 13.5 °C 67.62 % 1,014.76 mbar 2.51 m/s 3.58 Deg 2.56 µg/m3
2022-01-15 15:00 10.25 µg/m3 1.38 µg/m3 86.46 µg/m3 15.91 µg/m3 µg/m3 13.72 °C 64.02 % 1,014.63 mbar 3.05 m/s 9.28 Deg 2.28 µg/m3
2022-01-15 14:00 13.95 µg/m3 1.6 µg/m3 80.14 µg/m3 13.72 µg/m3 µg/m3 13.97 °C 62.8 % 1,014.80 mbar 2.65 m/s 92.7 Deg 3.41 µg/m3
2022-01-15 13:00 15.86 µg/m3 1.7 µg/m3 76.72 µg/m3 14.79 µg/m3 µg/m3 13.84 °C 62.83 % 1,015.55 mbar 2.51 m/s 256.03 Deg 4.3 µg/m3
2022-01-15 12:00 14.64 µg/m3 1.69 µg/m3 75.78 µg/m3 23.73 µg/m3 µg/m3 13.33 °C 66.39 % 1,016.38 mbar 3.01 m/s 348.33 Deg 3.85 µg/m3
2022-01-15 11:00 21.64 µg/m3 1.66 µg/m3 66.29 µg/m3 38.86 µg/m3 µg/m3 12.93 °C 68.29 % 1,016.83 mbar 2.62 m/s 342.63 Deg 6.2 µg/m3
2022-01-15 10:00 52.69 µg/m3 1.86 µg/m3 31.56 µg/m3 42.25 µg/m3 µg/m3 11.93 °C 73.55 % 1,016.85 mbar 1.31 m/s 319.4 Deg 25.34 µg/m3
2022-01-15 09:00 65.63 µg/m3 2.15 µg/m3 16.42 µg/m3 18.96 µg/m3 µg/m3 9.67 °C 79.63 % 1,016.87 mbar 1.67 m/s 306.48 Deg 37.34 µg/m3
2022-01-15 08:00 69.7 µg/m3 2.13 µg/m3 10.49 µg/m3 13.4 µg/m3 µg/m3 8.45 °C 82.66 % 1,016.97 mbar 1.64 m/s 311.28 Deg 26.31 µg/m3
2022-01-15 07:00 52 µg/m3 1.88 µg/m3 23.18 µg/m3 15.13 µg/m3 µg/m3 8.44 °C 81.74 % 1,016.76 mbar 1.85 m/s 301.28 Deg 9.83 µg/m3
2022-01-15 06:00 21.88 µg/m3 1.56 µg/m3 51.89 µg/m3 12.06 µg/m3 µg/m3 8.82 °C 80.42 % 1,016.54 mbar 1.7 m/s 294 Deg 2.16 µg/m3
2022-01-15 05:00 9.5 µg/m3 1.7 µg/m3 62.26 µg/m3 12.27 µg/m3 µg/m3 8.96 °C 77.06 % 1,016.87 mbar 1.75 m/s 297.17 Deg 0.54 µg/m3
2022-01-15 04:00 9.03 µg/m3 1.74 µg/m3 64.61 µg/m3 15.39 µg/m3 µg/m3 9.06 °C 71.45 % 1,017.48 mbar 1.45 m/s 284.13 Deg 0.58 µg/m3
2022-01-15 03:00 15.06 µg/m3 1.53 µg/m3 59.12 µg/m3 13.34 µg/m3 µg/m3 8.59 °C 74.23 % 1,018.08 mbar 1.72 m/s 292.95 Deg 0.35 µg/m3
2022-01-15 02:00 16.22 µg/m3 1.71 µg/m3 57.19 µg/m3 14.72 µg/m3 µg/m3 8.45 °C 72.51 % 1,018.38 mbar 1.61 m/s 303.53 Deg 0.38 µg/m3
2022-01-15 01:00 18.67 µg/m3 1.8 µg/m3 57.82 µg/m3 23.28 µg/m3 µg/m3 8.8 °C 68.06 % 1,018.58 mbar 1.71 m/s 302.17 Deg 0.71 µg/m3
2022-01-15 00:00 19.85 µg/m3 1.54 µg/m3 59.26 µg/m3 28.05 µg/m3 µg/m3 9.05 °C 68.26 % 1,019.28 mbar 1.86 m/s 298.6 Deg 0.92 µg/m3
2022-01-14 23:00 26.88 µg/m3 1.7 µg/m3 50.5 µg/m3 44.3 µg/m3 µg/m3 8.9 °C 72.28 % 1,019.83 mbar 1.84 m/s 304.53 Deg 1.47 µg/m3
2022-01-14 22:00 40.38 µg/m3 1.73 µg/m3 37.5 µg/m3 44.62 µg/m3 µg/m3 9.17 °C 72.33 % 1,020.05 mbar 2.04 m/s 303.37 Deg 4.25 µg/m3
2022-01-14 21:00 64.29 µg/m3 1.98 µg/m3 18.22 µg/m3 34.71 µg/m3 µg/m3 9.84 °C 71.05 % 1,020.17 mbar 1.47 m/s 304.62 Deg 9.14 µg/m3
2022-01-14 20:00 40.24 µg/m3 1.69 µg/m3 48.44 µg/m3 25.89 µg/m3 µg/m3 11 °C 62.48 % 1,020.13 mbar 1.19 m/s 14.78 Deg 3.96 µg/m3
2022-01-14 19:00 31.99 µg/m3 2.19 µg/m3 57.02 µg/m3 33.47 µg/m3 µg/m3 11.3 °C 63.41 % 1,019.98 mbar 1.32 m/s 27.47 Deg 3.39 µg/m3
2022-01-14 18:00 24.01 µg/m3 1.69 µg/m3 63.95 µg/m3 31.4 µg/m3 µg/m3 11.56 °C 66.38 % 1,019.72 mbar 1.89 m/s 34.77 Deg 2.58 µg/m3
2022-01-14 17:00 12.92 µg/m3 1.4 µg/m3 74.94 µg/m3 21.03 µg/m3 µg/m3 11.94 °C 67.3 % 1,019.55 mbar 2.62 m/s 38.2 Deg 1.43 µg/m3
2022-01-14 16:00 13.1 µg/m3 1.57 µg/m3 75.69 µg/m3 25.9 µg/m3 µg/m3 12.42 °C 66.07 % 1,019.66 mbar 3.26 m/s 37.62 Deg 2.46 µg/m3
2022-01-14 15:00 13.35 µg/m3 1.48 µg/m3 76.4 µg/m3 27.08 µg/m3 µg/m3 12.87 °C 61.24 % 1,019.64 mbar 3.4 m/s 34.93 Deg 2.64 µg/m3
2022-01-14 14:00 11.77 µg/m3 1.69 µg/m3 76.91 µg/m3 22.17 µg/m3 µg/m3 12.66 °C 62.58 % 1,019.98 mbar 3.36 m/s 23.7 Deg 2.32 µg/m3
2022-01-14 13:00 10.41 µg/m3 1.43 µg/m3 77.54 µg/m3 17.38 µg/m3 µg/m3 12.57 °C 62.21 % 1,020.59 mbar 3.79 m/s 36.58 Deg 2.37 µg/m3
2022-01-14 12:00 10.31 µg/m3 1.75 µg/m3 77.08 µg/m3 23.35 µg/m3 µg/m3 12.64 °C 60.89 % 1,021.07 mbar 3.59 m/s 37.57 Deg 2.27 µg/m3
2022-01-14 11:00 8.68 µg/m3 1.53 µg/m3 77.35 µg/m3 33.78 µg/m3 µg/m3 12.73 °C 64.47 % 1,021.26 mbar 3.59 m/s 113.95 Deg 1.54 µg/m3
2022-01-14 10:00 9.15 µg/m3 1.7 µg/m3 75.56 µg/m3 23.32 µg/m3 µg/m3 12.32 °C 66.77 % 1,021.07 mbar 3.51 m/s 108.18 Deg 2.42 µg/m3
2022-01-14 09:00 11.07 µg/m3 1.55 µg/m3 74.25 µg/m3 19.96 µg/m3 µg/m3 12.17 °C 66.32 % 1,020.84 mbar 3.34 m/s 197.48 Deg 1.4 µg/m3
2022-01-14 08:00 12.29 µg/m3 1.72 µg/m3 73.87 µg/m3 31.53 µg/m3 µg/m3 11.89 °C 67.25 % 1,020.69 mbar 4.23 m/s 43.4 Deg 1.46 µg/m3

It is to be noted that the data is provisional and subject to quality assurance procedures. For validated data kindly refer your request to contact.air@era.org.mt